createdAt,value
2023-01-13T00:06:21.647Z,2.99
2023-01-13T00:16:24.088Z,2.92
2023-01-13T00:26:30.660Z,2.93
2023-01-13T00:36:33.721Z,2.84
2023-01-13T00:46:36.355Z,2.84
2023-01-13T00:56:40.813Z,3.02
2023-01-13T01:06:43.766Z,3.07
2023-01-13T01:16:46.167Z,3.19
2023-01-13T01:26:48.514Z,3.28
2023-01-13T01:36:51.131Z,3.19
2023-01-13T01:46:55.286Z,3.09
2023-01-13T01:56:58.154Z,3.22
2023-01-13T02:07:04.360Z,3.21
2023-01-13T02:17:21.674Z,2.94
2023-01-13T02:27:46.741Z,2.70
2023-01-13T02:37:50.844Z,2.49
2023-01-13T02:47:56.169Z,2.29
2023-01-13T02:58:01.859Z,2.21
2023-01-13T03:08:04.949Z,2.49
2023-01-13T03:18:17.234Z,2.72
2023-01-13T03:28:28.270Z,2.92
2023-01-13T03:38:38.611Z,2.66
2023-01-13T03:48:45.827Z,2.00
2023-01-13T03:58:52.970Z,1.77
2023-01-13T04:09:11.894Z,1.54
2023-01-13T04:19:14.549Z,1.44
2023-01-13T04:29:17.355Z,1.31
2023-01-13T04:39:19.772Z,1.12
2023-01-13T04:49:22.193Z,1.02
2023-01-13T04:59:25.559Z,1.05
2023-01-13T05:09:28.179Z,0.98
2023-01-13T05:19:33.830Z,1.23
2023-01-13T05:29:36.247Z,1.01
2023-01-13T05:39:58.683Z,0.96
2023-01-13T05:50:01.312Z,1.22
2023-01-13T06:00:05.331Z,1.41
2023-01-13T06:10:14.608Z,1.52
2023-01-13T06:20:17.851Z,1.61
2023-01-13T06:30:23.201Z,2.01
2023-01-13T06:41:46.765Z,2.28
2023-01-13T06:51:59.967Z,2.49
2023-01-13T07:02:10.783Z,2.74
2023-01-13T07:12:17.104Z,2.74
2023-01-13T07:22:19.855Z,2.55
2023-01-13T07:32:22.948Z,2.73
2023-01-13T07:42:45.122Z,2.70
2023-01-13T07:52:51.427Z,2.78
2023-01-13T08:02:55.008Z,2.84
2023-01-13T08:13:21.158Z,2.96
2023-01-13T08:23:23.796Z,3.36
2023-01-13T08:33:26.423Z,3.78
2023-01-13T08:43:29.075Z,3.45
2023-01-13T08:53:32.131Z,3.40
2023-01-13T09:03:34.740Z,3.81
2023-01-13T09:13:37.188Z,4.28
2023-01-13T09:23:39.762Z,4.36
2023-01-13T09:34:00.940Z,4.23
2023-01-13T09:44:07.389Z,3.95
2023-01-13T09:54:25.969Z,4.29
2023-01-13T10:04:28.603Z,4.89
2023-01-13T10:27:20.251Z,5.62
2023-01-13T10:37:28.448Z,6.06
2023-01-13T10:47:35.796Z,6.32
2023-01-13T10:57:39.238Z,6.27
2023-01-13T11:07:50.483Z,6.11
2023-01-13T11:18:05.123Z,6.00
2023-01-13T11:28:36.640Z,6.21
2023-01-13T11:38:52.768Z,6.34
2023-01-13T11:48:56.639Z,6.69
2023-01-13T11:59:44.335Z,6.79
2023-01-13T12:10:14.770Z,6.76
2023-01-13T12:20:29.612Z,6.79
2023-01-13T12:30:55.199Z,6.76
2023-01-13T12:41:19.169Z,6.59
2023-01-13T12:51:22.833Z,6.44
2023-01-13T13:01:36.733Z,6.45
2023-01-13T13:12:03.078Z,6.63
2023-01-13T13:22:12.027Z,6.86
2023-01-13T13:32:33.449Z,6.98
2023-01-13T13:43:13.445Z,6.76
2023-01-13T13:53:19.776Z,6.70
2023-01-13T14:03:34.414Z,6.56
2023-01-13T14:13:36.975Z,6.43
2023-01-13T14:23:39.492Z,6.19
2023-01-13T14:33:48.131Z,5.94
2023-01-13T14:43:54.437Z,5.79
2023-01-13T14:53:58.539Z,5.68
2023-01-13T15:04:38.249Z,5.54
2023-01-13T15:14:40.810Z,5.46
2023-01-13T15:24:43.250Z,5.44
2023-01-13T15:34:47.857Z,5.43
2023-01-13T15:45:09.300Z,5.44
2023-01-13T15:55:11.876Z,5.39
2023-01-13T16:05:14.541Z,5.38
2023-01-13T16:15:18.357Z,5.40
2023-01-13T16:25:25.289Z,5.36
2023-01-13T16:35:29.089Z,5.34
2023-01-13T16:45:32.824Z,5.27
2023-01-13T16:55:36.888Z,5.22
2023-01-13T17:05:44.178Z,5.13
2023-01-13T17:15:46.729Z,5.05
2023-01-13T17:25:49.342Z,4.97
2023-01-13T17:35:51.909Z,5.00
2023-01-13T17:45:54.550Z,4.99
2023-01-13T17:55:57.736Z,4.99
2023-01-13T18:06:08.600Z,4.94
2023-01-13T18:16:13.923Z,4.84
2023-01-13T18:26:36.991Z,4.81
2023-01-13T18:36:39.616Z,4.72
2023-01-13T18:46:42.577Z,4.75
2023-01-13T18:56:45.491Z,4.73
2023-01-13T19:06:51.589Z,4.68
2023-01-13T19:16:54.395Z,4.66
2023-01-13T19:26:57.024Z,4.56
2023-01-13T19:36:59.619Z,4.62
2023-01-13T19:47:03.874Z,4.51
2023-01-13T19:57:07.066Z,4.51
2023-01-13T20:07:13.538Z,4.42
2023-01-13T20:17:18.584Z,4.39
2023-01-13T20:27:23.867Z,4.36
2023-01-13T20:37:27.005Z,4.23
2023-01-13T20:47:30.747Z,4.27
2023-01-13T20:57:33.374Z,4.27
2023-01-13T21:07:37.950Z,4.13
2023-01-13T21:18:00.708Z,4.26
2023-01-13T21:28:06.758Z,4.26
2023-01-13T21:38:11.449Z,4.18
2023-01-13T21:48:14.268Z,4.04
2023-01-13T21:58:17.147Z,3.96
2023-01-13T22:08:19.761Z,3.82
2023-01-13T22:18:22.300Z,3.66
2023-01-13T22:28:34.052Z,3.51
2023-01-13T22:38:36.952Z,3.50
2023-01-13T22:48:40.579Z,3.51
2023-01-13T22:58:43.771Z,3.44
2023-01-13T23:08:47.058Z,3.23
2023-01-13T23:18:49.664Z,3.14
2023-01-13T23:28:52.223Z,3.03
2023-01-13T23:38:55.518Z,2.94
2023-01-13T23:48:58.327Z,2.90
2023-01-13T23:59:00.828Z,2.75
